Time;durP1;ratioP1;P1;durP2;ratioP2;P2;SDS_P1;SDS_P2;PMS_P1;PMS_P2;Temp;Humidity;BMP_temperature;BMP_pressure;BME280_temperature;BME280_humidity;BME280_pressure;Samples;Min_cycle;Max_cycle;Signal;HPM_P1;HPM_P2
2024/02/03 12:55:49;;;;;;;11.35;3.45;;;11.50;99.90;;;;;;5057784;28;20402;-82
2024/02/03 12:58:16;;;;;;;20.23;3.65;;;11.40;99.90;;;;;;5051657;28;20060;-81
2024/02/03 13:00:42;;;;;;;11.93;2.95;;;11.90;99.90;;;;;;5055090;28;20112;-81
2024/02/03 13:03:13;;;;;;;10.43;2.50;;;12.40;99.90;;;;;;5053692;28;20045;-79
2024/02/03 13:05:42;;;;;;;13.30;3.53;;;12.70;99.90;;;;;;5052041;28;20033;-79
2024/02/03 13:08:08;;;;;;;11.23;3.10;;;13.00;99.90;;;;;;5055168;28;20048;-79
2024/02/03 13:10:34;;;;;;;8.25;2.90;;;13.20;99.90;;;;;;5058506;28;20563;-79
2024/02/03 13:13:00;;;;;;;11.90;3.20;;;13.30;99.90;;;;;;5055636;28;20400;-79
2024/02/03 13:15:27;;;;;;;12.35;2.55;;;13.40;99.90;;;;;;5054780;28;20037;-79
2024/02/03 13:17:52;;;;;;;9.43;2.75;;;13.50;99.90;;;;;;5055581;28;20033;-79
2024/02/03 13:20:18;;;;;;;14.90;2.85;;;13.60;99.90;;;;;;5055410;28;20044;-79
2024/02/03 13:22:44;;;;;;;9.80;2.47;;;13.60;99.90;;;;;;5055989;28;20111;-79
2024/02/03 13:25:09;;;;;;;6.82;2.42;;;13.70;99.80;;;;;;5058256;28;20037;-79
2024/02/03 13:27:35;;;;;;;9.25;2.55;;;13.70;99.70;;;;;;5054388;28;20373;-76
2024/02/03 13:30:03;;;;;;;6.28;2.30;;;13.80;99.60;;;;;;5059079;28;20108;-75
2024/02/03 13:32:29;;;;;;;6.03;2.30;;;13.80;99.40;;;;;;5054853;28;20043;-77
2024/02/03 13:34:54;;;;;;;10.25;2.47;;;13.80;99.40;;;;;;5056792;28;20040;-77
2024/02/03 13:37:20;;;;;;;12.48;2.47;;;13.80;99.30;;;;;;5049102;28;20082;-76
2024/02/03 13:39:46;;;;;;;11.68;2.80;;;13.70;99.20;;;;;;5049967;28;20062;-79
2024/02/03 13:42:12;;;;;;;10.55;2.33;;;13.80;99.30;;;;;;5049886;28;20104;-78
2024/02/03 13:44:37;;;;;;;9.02;2.83;;;13.80;99.30;;;;;;5054832;28;20554;-74
2024/02/03 13:47:03;;;;;;;8.25;2.47;;;13.80;99.20;;;;;;5053185;28;20021;-77
2024/02/03 13:49:32;;;;;;;16.33;2.30;;;13.80;99.20;;;;;;5053445;28;20032;-77
2024/02/03 13:51:58;;;;;;;6.18;2.10;;;13.80;99.00;;;;;;5043422;28;20068;-78
2024/02/03 13:54:23;;;;;;;20.67;2.97;;;13.90;99.10;;;;;;5050648;28;20076;-78
2024/02/03 13:56:49;;;;;;;8.75;2.55;;;13.80;99.00;;;;;;5054664;28;20036;-80
2024/02/03 13:59:15;;;;;;;17.17;2.95;;;13.90;99.10;;;;;;5047185;28;20108;-80
2024/02/03 14:01:40;;;;;;;4.85;2.15;;;13.90;99.00;;;;;;5052866;28;20517;-79
2024/02/03 14:04:06;;;;;;;7.47;2.65;;;13.90;98.80;;;;;;5056480;28;20032;-79
2024/02/03 14:06:32;;;;;;;12.88;2.70;;;13.90;98.80;;;;;;5036452;28;20483;-78
2024/02/03 14:08:57;;;;;;;15.43;3.05;;;13.90;98.80;;;;;;5040998;28;20040;-78
2024/02/03 14:11:24;;;;;;;9.60;2.60;;;13.90;98.80;;;;;;5031395;28;20029;-78
2024/02/03 14:13:50;;;;;;;8.85;3.17;;;13.90;98.90;;;;;;5041359;28;20506;-79
2024/02/03 14:16:16;;;;;;;8.52;2.88;;;13.90;98.80;;;;;;5041466;28;20036;-79
2024/02/03 14:18:42;;;;;;;13.23;3.03;;;13.90;98.70;;;;;;5043627;28;20025;-79
2024/02/03 14:21:08;;;;;;;14.27;2.80;;;13.90;98.50;;;;;;5041337;28;20033;-80
2024/02/03 14:23:34;;;;;;;7.95;2.63;;;13.90;98.60;;;;;;5040765;28;20074;-80
2024/02/03 14:26:06;;;;;;;6.28;2.92;;;13.90;98.60;;;;;;5039153;28;20036;-80
2024/02/03 14:28:33;;;;;;;13.40;3.60;;;13.90;98.50;;;;;;5044928;28;20025;-78
2024/02/03 14:30:58;;;;;;;12.10;2.55;;;13.90;98.50;;;;;;5031301;28;20355;-78
2024/02/03 14:33:26;;;;;;;11.57;2.63;;;13.90;98.50;;;;;;5035025;28;20044;-80
2024/02/03 14:35:52;;;;;;;10.60;3.05;;;13.90;98.50;;;;;;5034760;28;20405;-78
2024/02/03 14:38:24;;;;;;;19.00;3.08;;;13.90;98.30;;;;;;5031328;28;20473;-79
2024/02/03 14:40:50;;;;;;;13.20;3.15;;;13.80;98.40;;;;;;5026734;28;20168;-79
2024/02/03 14:43:16;;;;;;;8.98;3.35;;;13.90;98.40;;;;;;5032936;28;20037;-79
2024/02/03 14:45:42;;;;;;;10.55;2.88;;;13.90;98.50;;;;;;5025416;28;20029;-76
2024/02/03 14:48:08;;;;;;;6.80;2.55;;;13.80;98.50;;;;;;5033437;28;20025;-78
2024/02/03 14:50:34;;;;;;;7.85;2.88;;;13.80;98.50;;;;;;5043042;28;20028;-79
2024/02/03 14:53:00;;;;;;;7.55;2.75;;;13.80;98.40;;;;;;5033692;28;20124;-80
2024/02/03 14:55:25;;;;;;;10.88;2.53;;;13.80;98.40;;;;;;5030201;28;20050;-79
2024/02/03 14:57:51;;;;;;;10.00;2.35;;;13.80;98.40;;;;;;5031511;28;20036;-78
2024/02/03 15:00:18;;;;;;;15.15;2.40;;;13.80;98.40;;;;;;5030758;28;20040;-80
2024/02/03 15:02:46;;;;;;;17.15;3.33;;;13.80;98.40;;;;;;5028659;28;20080;-79
2024/02/03 15:05:12;;;;;;;10.35;2.17;;;13.90;98.40;;;;;;5034221;28;20478;-79
2024/02/03 15:07:37;;;;;;;8.90;2.85;;;13.80;98.20;;;;;;5046810;28;20135;-79
2024/02/03 15:10:03;;;;;;;12.23;2.67;;;13.80;98.20;;;;;;5031424;28;20030;-78
2024/02/03 15:12:33;;;;;;;9.30;2.30;;;13.80;98.30;;;;;;5030825;28;20124;-78
2024/02/03 15:15:08;;;;;;;5.07;2.25;;;13.80;98.20;;;;;;5027241;28;20485;-80
2024/02/03 15:17:33;;;;;;;14.48;2.58;;;13.80;98.20;;;;;;5026302;28;20536;-81
2024/02/03 15:19:59;;;;;;;9.93;2.53;;;13.80;98.20;;;;;;5034085;28;20022;-82
2024/02/03 15:22:25;;;;;;;12.88;2.05;;;13.70;98.10;;;;;;5032895;28;20021;-81
2024/02/03 15:24:51;;;;;;;10.45;2.05;;;13.80;97.90;;;;;;5030824;28;20381;-84
2024/02/03 15:27:17;;;;;;;9.07;2.42;;;13.70;97.80;;;;;;5031488;28;20113;-80
2024/02/03 15:29:44;;;;;;;9.10;1.27;;;13.70;97.60;;;;;;5029509;28;20424;-81
2024/02/03 15:32:09;;;;;;;13.98;2.70;;;13.80;97.80;;;;;;5031598;28;20025;-78
2024/02/03 15:34:35;;;;;;;22.63;2.42;;;13.80;97.50;;;;;;5029268;28;20087;-79
2024/02/03 15:37:02;;;;;;;11.80;2.20;;;13.70;97.40;;;;;;5034466;28;20037;-79
2024/02/03 15:39:28;;;;;;;8.80;2.15;;;13.70;97.50;;;;;;5027168;28;20060;-81
2024/02/03 15:41:54;;;;;;;11.60;1.90;;;13.70;97.40;;;;;;5030595;28;20087;-81
2024/02/03 15:44:24;;;;;;;15.15;2.40;;;13.70;97.40;;;;;;5020037;28;20026;-79
2024/02/03 15:46:52;;;;;;;8.38;1.50;;;13.80;97.30;;;;;;5041194;28;20056;-79
2024/02/03 15:49:17;;;;;;;9.18;2.28;;;13.80;97.10;;;;;;5041993;28;20028;-80
2024/02/03 15:51:43;;;;;;;7.35;1.95;;;13.70;97.20;;;;;;5037418;28;20370;-82
2024/02/03 15:54:09;;;;;;;16.42;3.17;;;13.80;97.20;;;;;;5028589;28;20107;-80
2024/02/03 15:56:35;;;;;;;11.02;1.80;;;13.80;97.00;;;;;;5044729;28;20119;-79
2024/02/03 15:59:02;;;;;;;15.05;2.50;;;13.80;97.10;;;;;;5034964;28;20037;-79
2024/02/03 16:01:28;;;;;;;9.90;2.45;;;13.80;97.00;;;;;;5038469;28;20021;-78
2024/02/03 16:03:53;;;;;;;15.43;3.80;;;13.80;97.00;;;;;;5035979;28;20036;-77
2024/02/03 16:06:19;;;;;;;16.55;2.88;;;13.80;96.90;;;;;;5038897;28;20578;-77
2024/02/03 16:08:45;;;;;;;11.98;2.13;;;13.80;96.80;;;;;;5026770;28;20025;-78
2024/02/03 16:11:11;;;;;;;14.40;2.53;;;13.80;96.80;;;;;;5041067;28;20037;-77
2024/02/03 16:13:40;;;;;;;6.53;1.75;;;13.80;96.70;;;;;;5036066;28;20041;-78
2024/02/03 16:16:07;;;;;;;21.08;3.05;;;13.70;96.70;;;;;;5037167;28;20041;-80
2024/02/03 16:18:33;;;;;;;14.38;3.00;;;13.70;96.60;;;;;;5025587;28;20037;-75
2024/02/03 16:20:58;;;;;;;8.68;2.15;;;13.70;96.70;;;;;;5035194;28;20036;-76
2024/02/03 16:23:24;;;;;;;19.30;2.95;;;13.70;96.60;;;;;;5036623;28;20033;-76
2024/02/03 16:25:50;;;;;;;10.10;3.13;;;13.70;96.30;;;;;;5028034;28;20021;-76
2024/02/03 16:28:16;;;;;;;9.75;2.70;;;13.70;96.30;;;;;;5028680;28;20469;-76
2024/02/03 16:30:42;;;;;;;17.20;1.63;;;13.70;96.30;;;;;;5029441;28;20045;-77
2024/02/03 16:33:10;;;;;;;17.48;2.38;;;13.60;96.30;;;;;;5030805;28;20025;-82
2024/02/03 16:35:36;;;;;;;15.82;2.58;;;13.60;96.30;;;;;;5030260;28;20037;-78
2024/02/03 16:38:01;;;;;;;20.55;3.08;;;13.60;96.40;;;;;;5031024;28;20755;-80
2024/02/03 16:40:27;;;;;;;13.98;1.92;;;13.60;96.20;;;;;;5028555;28;20025;-77
2024/02/03 16:42:53;;;;;;;21.77;3.40;;;13.60;96.20;;;;;;5032487;28;20507;-77
2024/02/03 16:45:18;;;;;;;10.68;2.25;;;13.60;96.00;;;;;;5033730;28;20041;-78
2024/02/03 16:47:44;;;;;;;14.50;2.65;;;13.60;96.10;;;;;;5036466;28;20021;-78
2024/02/03 16:50:10;;;;;;;9.65;2.17;;;13.50;95.80;;;;;;5040197;28;20119;-77
2024/02/03 16:52:36;;;;;;;12.25;2.00;;;13.50;96.10;;;;;;5039229;28;20053;-78
2024/02/03 16:55:01;;;;;;;6.18;0.75;;;13.50;95.80;;;;;;5033459;28;20497;-77
2024/02/03 16:57:27;;;;;;;14.80;2.42;;;13.50;96.10;;;;;;5027632;28;20018;-77
2024/02/03 16:59:53;;;;;;;4.72;1.50;;;13.50;96.10;;;;;;5032621;28;20460;-77
2024/02/03 17:02:20;;;;;;;14.60;3.08;;;13.50;96.20;;;;;;5031722;28;20080;-75
2024/02/03 17:04:46;;;;;;;8.68;2.20;;;13.50;96.20;;;;;;5029956;28;20546;-77
2024/02/03 17:07:12;;;;;;;13.23;2.15;;;13.40;96.20;;;;;;5015888;28;20473;-77
2024/02/03 17:09:38;;;;;;;6.07;1.85;;;13.40;96.20;;;;;;5027763;28;20037;-77
2024/02/03 17:12:04;;;;;;;14.57;2.67;;;13.30;96.20;;;;;;5041821;28;20025;-78
2024/02/03 17:14:30;;;;;;;4.63;1.23;;;13.30;96.10;;;;;;5036784;28;20043;-77
2024/02/03 17:16:58;;;;;;;13.20;2.65;;;13.30;96.30;;;;;;5034959;28;20029;-78
2024/02/03 17:19:24;;;;;;;7.05;1.90;;;13.20;96.40;;;;;;5040865;28;20029;-77
2024/02/03 17:21:56;;;;;;;17.95;2.03;;;13.10;96.40;;;;;;5043030;28;20025;-78
2024/02/03 17:24:23;;;;;;;8.75;2.75;;;13.10;96.50;;;;;;5046434;28;20037;-77
2024/02/03 17:26:54;;;;;;;5.25;1.83;;;13.10;96.60;;;;;;5037047;28;20116;-77
2024/02/03 17:29:20;;;;;;;6.78;2.55;;;13.10;96.60;;;;;;5026488;28;20068;-78
2024/02/03 17:31:46;;;;;;;13.75;3.25;;;13.10;96.60;;;;;;5027842;28;20030;-78
2024/02/03 17:34:12;;;;;;;6.18;2.17;;;13.10;96.60;;;;;;5028910;28;20548;-77
2024/02/03 17:36:37;;;;;;;11.65;3.03;;;13.10;96.60;;;;;;5029635;28;20115;-78
2024/02/03 17:39:04;;;;;;;9.70;2.58;;;13.10;96.70;;;;;;5031437;28;20028;-77
2024/02/03 17:41:29;;;;;;;3.22;1.73;;;13.20;96.70;;;;;;5040396;28;20117;-78
2024/02/03 17:43:55;;;;;;;4.40;1.55;;;13.10;96.60;;;;;;5039710;28;20117;-79
2024/02/03 17:46:21;;;;;;;12.27;2.67;;;13.10;96.60;;;;;;5042582;28;20025;-78
2024/02/03 17:48:46;;;;;;;9.93;2.22;;;13.00;96.40;;;;;;5048981;28;20111;-77
2024/02/03 17:51:13;;;;;;;11.20;2.22;;;13.00;96.40;;;;;;5031894;28;20673;-77
2024/02/03 17:53:39;;;;;;;2.20;1.50;;;13.00;96.60;;;;;;5036814;28;20048;-80
2024/02/03 17:56:07;;;;;;;2.05;1.42;;;12.90;96.50;;;;;;5043767;28;20036;-82
2024/02/03 17:58:32;;;;;;;8.10;1.48;;;12.90;96.60;;;;;;5041281;28;20025;-82
2024/02/03 18:00:58;;;;;;;2.63;1.35;;;12.90;96.80;;;;;;5038913;28;20025;-81
2024/02/03 18:03:26;;;;;;;2.63;1.17;;;12.90;96.80;;;;;;5040534;28;20029;-83
2024/02/03 18:05:52;;;;;;;12.93;3.55;;;12.90;96.70;;;;;;5046046;28;20091;-82
2024/02/03 18:08:18;;;;;;;14.30;3.15;;;12.90;96.60;;;;;;5041795;28;20059;-83
2024/02/03 18:10:47;;;;;;;13.57;2.50;;;12.90;96.60;;;;;;5042201;28;20555;-80
2024/02/03 18:13:12;;;;;;;11.15;2.60;;;13.00;96.60;;;;;;5041247;28;20029;-84
2024/02/03 18:15:38;;;;;;;24.85;3.38;;;13.00;96.50;;;;;;5039334;28;20092;-83
2024/02/03 18:18:04;;;;;;;7.80;2.80;;;13.10;96.40;;;;;;5041905;28;20032;-83
2024/02/03 18:20:30;;;;;;;9.52;1.70;;;13.10;96.20;;;;;;5039521;28;20056;-82
2024/02/03 18:22:56;;;;;;;20.52;2.45;;;13.10;96.30;;;;;;5043096;28;20028;-82
2024/02/03 18:25:23;;;;;;;6.70;1.30;;;13.00;96.10;;;;;;5035737;28;20464;-82
2024/02/03 18:27:49;;;;;;;15.57;2.55;;;13.00;96.10;;;;;;5039029;28;20028;-84
2024/02/03 18:30:15;;;;;;;15.20;2.40;;;13.00;96.10;;;;;;5038621;28;20127;-83
2024/02/03 18:32:43;;;;;;;14.82;1.88;;;12.90;96.10;;;;;;5040237;28;20120;-82
2024/02/03 18:35:09;;;;;;;6.95;2.03;;;13.00;96.20;;;;;;5038263;28;20559;-79
2024/02/03 18:37:38;;;;;;;7.65;2.53;;;13.00;96.00;;;;;;5035116;28;20036;-80
2024/02/03 18:40:05;;;;;;;2.05;1.15;;;12.90;96.00;;;;;;5034327;28;20037;-78
2024/02/03 18:42:30;;;;;;;1.45;1.05;;;12.90;96.00;;;;;;5041069;28;20053;-80
2024/02/03 18:44:56;;;;;;;14.40;1.92;;;12.90;96.10;;;;;;5039939;28;20462;-79
2024/02/03 18:47:24;;;;;;;8.35;1.92;;;12.80;96.00;;;;;;5036885;28;20039;-78
2024/02/03 18:49:50;;;;;;;4.05;1.65;;;12.80;96.10;;;;;;5039785;28;20067;-79
2024/02/03 18:52:16;;;;;;;3.60;1.25;;;12.80;96.10;;;;;;5039943;28;20025;-80
2024/02/03 18:54:42;;;;;;;3.25;1.67;;;12.80;96.10;;;;;;5028211;28;20089;-82
2024/02/03 18:57:08;;;;;;;8.82;1.88;;;12.80;95.90;;;;;;5025522;28;20073;-80
2024/02/03 18:59:35;;;;;;;11.45;2.83;;;12.70;95.70;;;;;;5030725;28;20064;-80
2024/02/03 19:02:04;;;;;;;14.10;1.25;;;12.70;95.80;;;;;;5027663;28;20035;-80
2024/02/03 19:04:30;;;;;;;7.45;2.20;;;12.70;95.90;;;;;;5031755;28;20033;-78
2024/02/03 19:06:55;;;;;;;2.13;1.20;;;12.60;95.80;;;;;;5031373;28;20032;-78
2024/02/03 19:09:22;;;;;;;7.13;1.63;;;12.60;96.00;;;;;;5028267;28;20037;-78
2024/02/03 19:11:51;;;;;;;2.47;0.88;;;12.60;96.00;;;;;;5040382;28;20370;-79
2024/02/03 19:14:18;;;;;;;7.85;2.38;;;12.60;96.00;;;;;;5028418;28;20091;-77
2024/02/03 19:16:46;;;;;;;8.18;1.55;;;12.50;95.90;;;;;;5029319;28;20527;-78
2024/02/03 19:19:12;;;;;;;6.78;1.63;;;12.50;95.90;;;;;;5040043;28;20021;-79
2024/02/03 19:21:38;;;;;;;13.98;2.38;;;12.50;96.00;;;;;;5030345;28;20115;-77
2024/02/03 19:24:04;;;;;;;8.60;2.15;;;12.40;96.00;;;;;;5045604;28;20155;-78
2024/02/03 19:26:30;;;;;;;5.47;1.88;;;12.40;96.00;;;;;;5032771;28;20082;-78
2024/02/03 19:28:56;;;;;;;2.33;1.90;;;12.40;96.00;;;;;;5029032;28;20147;-78
2024/02/03 19:31:25;;;;;;;3.05;1.52;;;12.30;96.20;;;;;;5026285;28;20022;-79
2024/02/03 19:33:52;;;;;;;2.75;1.88;;;12.30;96.20;;;;;;5028700;28;20041;-79
2024/02/03 19:36:17;;;;;;;8.27;2.08;;;12.20;96.10;;;;;;5016119;28;20041;-77
2024/02/03 19:38:43;;;;;;;6.20;2.63;;;12.30;96.10;;;;;;5030605;28;20112;-78
2024/02/03 19:41:13;;;;;;;6.43;1.33;;;12.20;96.20;;;;;;5029118;28;20124;-78
2024/02/03 19:43:41;;;;;;;7.53;2.00;;;12.20;96.30;;;;;;5030168;28;20030;-79
2024/02/03 19:46:07;;;;;;;9.98;2.40;;;12.20;96.30;;;;;;5033579;28;20112;-78
2024/02/03 19:48:32;;;;;;;9.13;1.73;;;12.20;96.30;;;;;;5030093;28;20379;-80
2024/02/03 19:50:59;;;;;;;2.20;0.80;;;12.20;96.20;;;;;;5031248;28;20489;-78
2024/02/03 19:53:25;;;;;;;18.15;3.45;;;12.20;96.20;;;;;;5029555;28;20063;-78
2024/02/03 19:55:51;;;;;;;5.72;1.67;;;12.30;96.20;;;;;;5028885;28;20049;-78
2024/02/03 19:58:18;;;;;;;3.53;1.10;;;12.40;96.00;;;;;;5039132;28;20032;-78
2024/02/03 20:00:43;;;;;;;4.22;1.10;;;12.30;95.70;;;;;;5041201;28;20045;-77
2024/02/03 20:03:09;;;;;;;7.88;2.67;;;12.30;95.60;;;;;;5028017;28;20033;-77
2024/02/03 20:05:34;;;;;;;7.03;1.95;;;12.20;95.50;;;;;;5027999;28;20030;-77
2024/02/03 20:08:00;;;;;;;6.43;1.77;;;12.20;95.60;;;;;;5037431;28;20041;-79
2024/02/03 20:10:28;;;;;;;19.85;1.73;;;12.20;95.70;;;;;;5027074;28;20029;-76
2024/02/03 20:12:55;;;;;;;9.38;0.98;;;12.10;95.70;;;;;;5031532;28;20029;-77
2024/02/03 20:15:22;;;;;;;5.28;2.28;;;12.10;95.50;;;;;;5028330;28;20042;-76
2024/02/03 20:17:47;;;;;;;4.18;1.30;;;12.10;95.70;;;;;;5030753;28;20032;-77
2024/02/03 20:20:13;;;;;;;3.25;1.45;;;12.10;95.80;;;;;;5040557;28;20103;-78
2024/02/03 20:22:39;;;;;;;5.85;1.63;;;12.10;95.70;;;;;;5046635;28;20021;-78
2024/02/03 20:25:05;;;;;;;6.70;2.08;;;12.00;95.70;;;;;;5027834;28;20128;-77
2024/02/03 20:27:30;;;;;;;2.95;1.55;;;12.00;95.70;;;;;;5039734;28;20071;-77
2024/02/03 20:29:56;;;;;;;3.15;1.27;;;12.00;95.70;;;;;;5042845;28;20145;-77
2024/02/03 20:32:22;;;;;;;7.55;2.40;;;12.00;95.80;;;;;;5024690;28;20022;-77
2024/02/03 20:34:48;;;;;;;5.00;1.60;;;12.00;95.80;;;;;;5038450;28;20501;-77
2024/02/03 20:37:13;;;;;;;3.45;1.70;;;11.90;95.80;;;;;;5032961;28;20017;-78
2024/02/03 20:39:39;;;;;;;8.48;1.95;;;11.90;95.80;;;;;;5026055;28;20476;-77
2024/02/03 20:42:05;;;;;;;11.07;2.05;;;11.90;95.80;;;;;;5028310;28;20025;-77
2024/02/03 20:44:30;;;;;;;9.65;1.90;;;11.90;95.70;;;;;;5027422;28;20052;-77
2024/02/03 20:46:56;;;;;;;14.73;2.10;;;11.90;95.90;;;;;;5031312;28;20041;-77
2024/02/03 20:49:21;;;;;;;9.75;1.58;;;11.90;95.90;;;;;;5028306;28;20037;-77
2024/02/03 20:51:47;;;;;;;5.30;1.75;;;11.80;95.90;;;;;;5030009;28;20628;-77
2024/02/03 20:54:14;;;;;;;8.80;2.33;;;11.80;95.90;;;;;;5026763;28;20045;-77
2024/02/03 20:56:40;;;;;;;13.82;2.95;;;11.80;96.10;;;;;;5028593;28;20035;-77
2024/02/03 20:59:05;;;;;;;10.60;2.65;;;11.70;96.00;;;;;;5019543;28;20034;-77
2024/02/03 21:01:31;;;;;;;2.45;1.67;;;11.70;95.90;;;;;;5028588;28;20362;-77
2024/02/03 21:03:58;;;;;;;5.35;1.63;;;11.70;96.10;;;;;;5018606;28;20037;-77
2024/02/03 21:06:24;;;;;;;8.90;2.63;;;11.70;96.10;;;;;;5039415;28;20045;-77
2024/02/03 21:08:49;;;;;;;12.75;1.85;;;11.70;96.20;;;;;;5026019;28;20056;-77
2024/02/03 21:11:15;;;;;;;23.50;2.92;;;11.70;96.10;;;;;;5027496;28;20033;-77
2024/02/03 21:13:41;;;;;;;12.45;2.90;;;11.70;96.00;;;;;;5012483;28;20030;-77
2024/02/03 21:16:06;;;;;;;4.53;1.67;;;11.60;96.10;;;;;;5041946;28;20037;-77
2024/02/03 21:18:32;;;;;;;7.80;2.13;;;11.60;96.20;;;;;;5030118;28;20052;-77
2024/02/03 21:20:58;;;;;;;4.20;1.58;;;11.60;96.20;;;;;;5030705;28;20144;-78
2024/02/03 21:23:23;;;;;;;8.15;1.48;;;11.60;96.20;;;;;;5043959;28;20038;-78
2024/02/03 21:25:49;;;;;;;14.32;1.90;;;11.60;96.20;;;;;;5042753;28;20025;-78
2024/02/03 21:28:15;;;;;;;13.27;3.08;;;11.60;96.30;;;;;;5031246;28;20131;-78
2024/02/03 21:30:41;;;;;;;9.27;2.08;;;11.60;96.30;;;;;;5031363;28;20037;-78
2024/02/03 21:33:06;;;;;;;11.63;2.40;;;11.60;96.30;;;;;;5030378;28;20057;-77
2024/02/03 21:35:32;;;;;;;5.90;2.17;;;11.60;96.30;;;;;;5031068;28;20083;-78
2024/02/03 21:37:58;;;;;;;3.67;1.60;;;11.50;96.40;;;;;;5031189;28;20021;-79
2024/02/03 21:40:24;;;;;;;2.83;1.55;;;11.60;96.40;;;;;;5033330;28;20128;-77
2024/02/03 21:42:50;;;;;;;16.77;3.03;;;11.60;96.50;;;;;;5027823;28;20433;-78
2024/02/03 21:45:18;;;;;;;13.85;2.97;;;11.50;96.40;;;;;;5037183;28;20068;-78
2024/02/03 21:47:44;;;;;;;1.83;1.02;;;11.50;96.40;;;;;;5038807;28;20022;-79
2024/02/03 21:50:10;;;;;;;4.20;1.83;;;11.50;96.40;;;;;;5036130;28;20534;-78
2024/02/03 21:52:36;;;;;;;1.40;1.13;;;11.40;96.50;;;;;;5032390;28;20108;-79
2024/02/03 21:55:02;;;;;;;7.63;2.20;;;11.50;96.50;;;;;;5024984;28;20178;-77
2024/02/03 21:57:28;;;;;;;7.32;1.17;;;11.50;96.50;;;;;;5032849;28;20048;-77
2024/02/03 21:59:53;;;;;;;8.45;2.03;;;11.40;96.40;;;;;;5031571;28;20095;-76
2024/02/03 22:02:19;;;;;;;5.93;1.73;;;11.50;96.40;;;;;;5031723;28;20021;-76
2024/02/03 22:04:44;;;;;;;5.07;1.58;;;11.40;96.40;;;;;;5033567;28;20033;-77
2024/02/03 22:07:10;;;;;;;10.07;2.22;;;11.40;96.30;;;;;;5037776;28;20033;-77
2024/02/03 22:09:38;;;;;;;9.23;2.42;;;11.40;96.30;;;;;;5029277;28;20059;-77
2024/02/03 22:12:07;;;;;;;12.55;2.25;;;11.40;96.30;;;;;;5030197;28;20029;-77
2024/02/03 22:14:33;;;;;;;1.95;1.20;;;11.30;96.40;;;;;;5029591;28;20504;-77
2024/02/03 22:16:58;;;;;;;4.18;1.98;;;11.30;96.40;;;;;;5031088;28;20017;-77
2024/02/03 22:19:25;;;;;;;5.70;1.90;;;11.30;96.50;;;;;;5031951;28;20380;-77
2024/02/03 22:21:50;;;;;;;6.32;2.70;;;11.20;96.40;;;;;;5030741;28;20025;-77
2024/02/03 22:24:16;;;;;;;7.85;2.90;;;11.20;96.40;;;;;;5029680;28;20039;-77
2024/02/03 22:26:42;;;;;;;2.50;1.63;;;11.20;96.40;;;;;;5031811;28;20108;-77
2024/02/03 22:29:08;;;;;;;5.38;2.13;;;11.20;96.70;;;;;;5029111;28;20044;-77
2024/02/03 22:31:34;;;;;;;10.00;2.15;;;11.10;96.50;;;;;;5035646;28;20025;-77
2024/02/03 22:34:00;;;;;;;13.80;2.83;;;11.10;96.50;;;;;;5041406;28;20029;-77
2024/02/03 22:36:25;;;;;;;9.52;2.80;;;11.00;96.50;;;;;;5031481;28;20081;-79
2024/02/03 22:38:51;;;;;;;14.40;3.90;;;11.00;96.80;;;;;;5029977;28;20119;-78
2024/02/03 22:41:17;;;;;;;2.42;1.13;;;11.10;96.60;;;;;;5038860;28;20033;-84
2024/02/03 22:43:43;;;;;;;3.05;1.48;;;11.00;96.50;;;;;;5033149;28;20053;-77
2024/02/03 22:46:08;;;;;;;5.22;2.72;;;11.00;96.40;;;;;;5027556;28;20563;-77
2024/02/03 22:48:34;;;;;;;16.08;1.80;;;11.00;96.50;;;;;;5029210;28;20032;-77
2024/02/03 22:51:00;;;;;;;4.10;1.67;;;11.00;96.50;;;;;;5036047;28;20151;-77
2024/02/03 22:53:26;;;;;;;7.75;2.95;;;11.00;96.40;;;;;;5038760;28;20048;-77
2024/02/03 22:55:53;;;;;;;5.65;1.33;;;11.00;96.50;;;;;;5034451;28;20041;-77
2024/02/03 22:58:19;;;;;;;4.90;1.67;;;11.00;96.40;;;;;;5041133;28;20479;-77
2024/02/03 23:00:45;;;;;;;3.83;1.88;;;11.00;96.40;;;;;;5027470;28;20033;-77
2024/02/03 23:03:10;;;;;;;2.85;1.10;;;11.00;96.40;;;;;;5032644;28;20037;-77
2024/02/03 23:05:36;;;;;;;3.22;1.40;;;11.00;96.40;;;;;;5034981;28;20028;-76
2024/02/03 23:08:02;;;;;;;4.28;2.55;;;11.00;96.50;;;;;;5026384;28;20421;-77
2024/02/03 23:10:28;;;;;;;11.40;1.45;;;10.90;96.40;;;;;;5037986;28;20021;-77
2024/02/03 23:12:53;;;;;;;3.50;1.05;;;10.90;96.40;;;;;;5035087;28;20033;-77
2024/02/03 23:15:19;;;;;;;4.43;1.35;;;10.90;96.30;;;;;;5036199;28;20146;-77
2024/02/03 23:17:45;;;;;;;5.28;1.30;;;11.00;96.20;;;;;;5044793;28;20029;-77
2024/02/03 23:20:12;;;;;;;6.15;1.65;;;11.00;96.20;;;;;;5036408;28;20032;-77
2024/02/03 23:22:39;;;;;;;3.22;1.65;;;11.00;96.20;;;;;;5043010;28;20041;-77
2024/02/03 23:25:08;;;;;;;1.40;1.08;;;11.00;96.10;;;;;;5041486;28;20040;-77
2024/02/03 23:27:34;;;;;;;7.93;2.42;;;11.00;96.00;;;;;;5046565;28;20717;-77
2024/02/03 23:30:00;;;;;;;4.43;1.50;;;11.00;96.00;;;;;;5043116;28;20037;-77
2024/02/03 23:32:29;;;;;;;1.40;1.27;;;11.00;95.90;;;;;;5025913;28;20081;-77
2024/02/03 23:34:54;;;;;;;8.32;1.88;;;11.00;96.00;;;;;;5041436;28;20040;-77
2024/02/03 23:37:20;;;;;;;6.35;1.80;;;10.90;96.00;;;;;;5039314;28;20024;-77
2024/02/03 23:39:47;;;;;;;2.25;1.00;;;10.90;96.00;;;;;;5032186;28;20033;-77
2024/02/03 23:42:15;;;;;;;3.28;1.45;;;10.90;96.10;;;;;;5039436;28;20033;-77
2024/02/03 23:44:41;;;;;;;6.43;2.38;;;10.80;96.00;;;;;;5043417;28;20025;-77
2024/02/03 23:47:07;;;;;;;13.93;2.85;;;10.80;96.10;;;;;;5041236;28;20071;-77
2024/02/03 23:49:32;;;;;;;7.88;1.85;;;10.80;96.20;;;;;;5035150;28;20025;-77
2024/02/03 23:51:58;;;;;;;7.13;2.38;;;10.80;96.20;;;;;;5045808;28;20423;-77
2024/02/03 23:54:23;;;;;;;1.60;1.50;;;10.70;96.20;;;;;;5039638;28;20052;-77
2024/02/03 23:56:49;;;;;;;6.03;2.22;;;10.70;96.30;;;;;;5045084;28;20078;-77
2024/02/03 23:59:15;;;;;;;6.60;2.25;;;10.60;96.40;;;;;;5040278;28;20025;-77
